createdAt,value
2018-05-15T00:02:07.021Z,15.70
2018-05-15T00:04:34.624Z,15.70
2018-05-15T00:07:02.243Z,15.80
2018-05-15T00:09:29.871Z,15.70
2018-05-15T00:11:58.276Z,15.80
2018-05-15T00:14:25.898Z,15.80
2018-05-15T00:16:53.594Z,15.80
2018-05-15T00:19:21.214Z,15.80
2018-05-15T00:21:48.820Z,15.70
2018-05-15T00:24:16.458Z,15.70
2018-05-15T00:26:44.814Z,15.80
2018-05-15T00:29:12.394Z,15.80
2018-05-15T00:31:40.018Z,15.90
2018-05-15T00:34:07.619Z,15.90
2018-05-15T00:36:36.006Z,15.90
2018-05-15T00:39:05.150Z,16.00
2018-05-15T00:41:32.774Z,16.00
2018-05-15T00:44:01.134Z,16.00
2018-05-15T00:46:29.487Z,16.00
2018-05-15T00:48:57.135Z,16.00
2018-05-15T00:51:24.719Z,16.00
2018-05-15T00:53:52.314Z,16.00
2018-05-15T00:56:20.710Z,15.90
2018-05-15T00:58:48.335Z,15.90
2018-05-15T01:01:15.960Z,15.90
2018-05-15T01:03:43.569Z,15.90
2018-05-15T01:06:11.967Z,16.00
2018-05-15T01:08:39.630Z,16.00
2018-05-15T01:11:10.343Z,15.90
2018-05-15T01:13:40.861Z,15.90
2018-05-15T01:16:10.681Z,15.90
2018-05-15T01:18:41.342Z,15.90
2018-05-15T01:21:10.966Z,15.90
2018-05-15T01:23:40.408Z,15.90
2018-05-15T01:26:10.136Z,15.90
2018-05-15T01:28:40.241Z,15.90
2018-05-15T01:31:09.541Z,15.90
2018-05-15T01:33:39.012Z,15.80
2018-05-15T01:36:07.573Z,15.80
2018-05-15T01:38:36.111Z,15.70
2018-05-15T01:41:05.645Z,15.70
2018-05-15T01:43:36.469Z,15.60
2018-05-15T01:46:06.183Z,15.60
2018-05-15T01:48:37.069Z,15.50
2018-05-15T01:51:06.740Z,15.50
2018-05-15T01:53:37.367Z,15.50
2018-05-15T01:56:06.805Z,15.50
2018-05-15T01:58:34.448Z,15.40
2018-05-15T02:01:02.835Z,15.40
2018-05-15T02:03:31.227Z,15.40
2018-05-15T02:05:58.837Z,15.40
2018-05-15T02:08:26.461Z,15.40
2018-05-15T02:10:54.058Z,15.30
2018-05-15T02:13:21.701Z,15.30
2018-05-15T02:15:49.341Z,15.30
2018-05-15T02:18:16.951Z,15.20
2018-05-15T02:20:44.597Z,15.20
2018-05-15T02:23:12.216Z,15.20
2018-05-15T02:25:39.819Z,15.10
2018-05-15T02:28:07.442Z,15.10
2018-05-15T02:30:35.101Z,15.00
2018-05-15T02:33:02.668Z,15.00
2018-05-15T02:35:30.256Z,15.00
2018-05-15T02:37:57.895Z,15.00
2018-05-15T02:40:25.494Z,15.00
2018-05-15T02:42:53.081Z,14.90
2018-05-15T02:45:21.492Z,14.90
2018-05-15T02:47:49.099Z,14.90
2018-05-15T02:50:16.701Z,14.90
2018-05-15T02:52:44.364Z,14.80
2018-05-15T02:55:11.970Z,14.80
2018-05-15T02:57:39.602Z,14.70
2018-05-15T03:00:07.189Z,14.70
2018-05-15T03:02:34.835Z,14.70
2018-05-15T03:05:02.446Z,14.60
2018-05-15T03:07:30.075Z,14.70
2018-05-15T03:09:57.724Z,14.60
2018-05-15T03:12:25.342Z,14.60
2018-05-15T03:14:53.698Z,14.50
2018-05-15T03:17:21.317Z,14.50
2018-05-15T03:19:48.921Z,14.50
2018-05-15T03:22:16.563Z,14.50
2018-05-15T03:24:44.195Z,14.50
2018-05-15T03:27:11.819Z,14.40
2018-05-15T03:29:40.387Z,14.40
2018-05-15T03:32:07.968Z,14.30
2018-05-15T03:34:36.387Z,14.20
2018-05-15T03:37:03.963Z,14.20
2018-05-15T03:39:31.550Z,14.10
2018-05-15T03:41:59.164Z,14.10
2018-05-15T03:44:26.786Z,14.20
2018-05-15T03:46:54.370Z,14.20
2018-05-15T03:49:22.726Z,14.10
2018-05-15T03:51:50.378Z,14.10
2018-05-15T03:54:18.380Z,14.10
2018-05-15T03:56:46.785Z,14.00
2018-05-15T03:59:14.396Z,14.00
2018-05-15T04:01:53.975Z,14.00
2018-05-15T04:04:33.365Z,13.90
2018-05-15T04:07:12.812Z,13.90
2018-05-15T04:09:40.409Z,13.90
2018-05-15T04:12:08.053Z,13.80
2018-05-15T04:14:35.637Z,13.80
2018-05-15T04:17:03.250Z,13.80
2018-05-15T04:19:30.857Z,13.80
2018-05-15T04:21:58.454Z,13.90
2018-05-15T04:24:26.089Z,13.80
2018-05-15T04:26:53.690Z,13.80
2018-05-15T04:29:21.327Z,13.80
2018-05-15T04:31:48.912Z,13.80
2018-05-15T04:34:16.543Z,13.80
2018-05-15T04:36:44.124Z,13.90
2018-05-15T04:39:11.738Z,13.80
2018-05-15T04:41:40.121Z,13.80
2018-05-15T04:44:07.745Z,13.80
2018-05-15T04:46:35.327Z,13.90
2018-05-15T04:49:02.967Z,13.90
2018-05-15T04:51:30.563Z,13.90
2018-05-15T04:53:58.150Z,14.00
2018-05-15T04:56:25.766Z,13.90
2018-05-15T04:58:53.388Z,14.00
2018-05-15T05:01:21.020Z,14.00
2018-05-15T05:03:49.418Z,14.10
2018-05-15T05:06:17.038Z,14.10
2018-05-15T05:08:44.619Z,14.20
2018-05-15T05:11:12.273Z,14.20
2018-05-15T05:13:40.616Z,14.30
2018-05-15T05:16:08.238Z,14.30
2018-05-15T05:18:35.842Z,14.30
2018-05-15T05:21:03.468Z,14.40
2018-05-15T05:23:31.063Z,14.40
2018-05-15T05:25:58.730Z,14.50
2018-05-15T05:28:26.390Z,14.60
2018-05-15T05:30:54.036Z,14.60
2018-05-15T05:33:21.696Z,14.60
2018-05-15T05:35:49.997Z,14.60
2018-05-15T05:38:17.626Z,14.60
2018-05-15T05:40:45.221Z,14.70
2018-05-15T05:43:12.846Z,14.70
2018-05-15T05:45:40.438Z,14.60
2018-05-15T05:48:08.072Z,14.70
2018-05-15T05:50:35.704Z,14.70
2018-05-15T05:53:04.594Z,14.90
2018-05-15T05:55:32.327Z,14.90
2018-05-15T05:57:59.963Z,14.90
2018-05-15T06:00:27.549Z,15.00
2018-05-15T06:02:55.186Z,15.00
2018-05-15T06:05:22.793Z,15.10
2018-05-15T06:07:51.241Z,15.20
2018-05-15T06:10:18.887Z,15.20
2018-05-15T06:12:46.485Z,15.20
2018-05-15T06:15:14.115Z,15.30
2018-05-15T06:17:41.690Z,15.40
2018-05-15T06:20:09.364Z,15.50
2018-05-15T06:22:36.990Z,15.50
2018-05-15T06:25:04.594Z,15.50
2018-05-15T06:27:32.373Z,15.40
2018-05-15T06:30:00.043Z,15.30
2018-05-15T06:32:29.276Z,15.10
2018-05-15T06:34:58.191Z,15.10
2018-05-15T06:37:26.694Z,15.00
2018-05-15T06:39:56.387Z,15.00
2018-05-15T06:42:24.146Z,15.00
2018-05-15T06:44:52.075Z,15.10
2018-05-15T06:47:19.684Z,15.30
2018-05-15T06:49:47.410Z,15.40
2018-05-15T06:52:15.040Z,15.50
2018-05-15T06:54:43.427Z,16.10
2018-05-15T06:57:11.862Z,16.30
2018-05-15T06:59:40.460Z,16.30
2018-05-15T07:02:08.098Z,16.40
2018-05-15T07:04:36.390Z,16.60
2018-05-15T07:07:03.975Z,16.70
2018-05-15T07:09:31.603Z,16.80
2018-05-15T07:11:59.371Z,16.90
2018-05-15T07:14:27.258Z,16.90
2018-05-15T07:16:54.876Z,17.00
2018-05-15T07:19:22.612Z,17.10
2018-05-15T07:21:50.155Z,17.20
2018-05-15T07:24:17.754Z,17.30
2018-05-15T07:26:45.426Z,17.40
2018-05-15T07:29:13.033Z,17.60
2018-05-15T07:31:40.675Z,17.90
2018-05-15T07:34:09.099Z,18.00
2018-05-15T07:36:36.784Z,18.00
2018-05-15T07:39:04.462Z,17.20
2018-05-15T07:41:32.161Z,18.10
2018-05-15T07:43:59.830Z,18.20
2018-05-15T07:46:27.440Z,18.50
2018-05-15T07:48:55.068Z,18.80
2018-05-15T07:51:23.539Z,19.20
2018-05-15T07:53:51.147Z,19.20
2018-05-15T07:56:18.807Z,19.30
2018-05-15T07:58:46.606Z,19.50
2018-05-15T08:01:14.241Z,19.60
2018-05-15T08:03:42.011Z,19.60
2018-05-15T08:06:09.685Z,19.70
2018-05-15T08:08:37.293Z,19.80
2018-05-15T08:11:05.712Z,19.90
2018-05-15T08:13:34.057Z,20.10
2018-05-15T08:16:02.555Z,20.10
2018-05-15T08:18:32.894Z,20.10
2018-05-15T08:21:00.721Z,20.30
2018-05-15T08:23:28.323Z,20.30
2018-05-15T08:25:55.992Z,20.40
2018-05-15T08:28:23.636Z,20.40
2018-05-15T08:30:51.432Z,20.40
2018-05-15T08:33:19.779Z,20.50
2018-05-15T08:35:47.452Z,20.50
2018-05-15T08:38:15.153Z,20.60
2018-05-15T08:40:42.803Z,20.70
2018-05-15T08:43:10.434Z,20.70
2018-05-15T08:45:38.068Z,20.70
2018-05-15T08:48:05.694Z,20.80
2018-05-15T08:50:33.369Z,20.90
2018-05-15T08:53:01.014Z,20.90
2018-05-15T08:55:28.667Z,20.90
2018-05-15T08:57:56.317Z,20.80
2018-05-15T09:00:23.970Z,20.70
2018-05-15T09:02:51.606Z,20.70
2018-05-15T09:05:21.542Z,21.00
2018-05-15T09:07:49.183Z,21.00
2018-05-15T09:10:17.054Z,21.30
2018-05-15T09:12:44.686Z,21.30
2018-05-15T09:15:12.372Z,21.50
2018-05-15T09:17:40.099Z,21.60
2018-05-15T09:20:07.801Z,21.80
2018-05-15T09:22:35.528Z,21.90
2018-05-15T09:25:03.927Z,22.20
2018-05-15T09:27:31.586Z,22.20
2018-05-15T09:29:59.203Z,22.40
2018-05-15T09:32:26.895Z,22.50
2018-05-15T09:34:54.487Z,22.50
2018-05-15T09:37:22.138Z,22.60
2018-05-15T09:39:50.728Z,22.70
2018-05-15T09:42:18.305Z,22.70
2018-05-15T09:44:46.726Z,22.80
2018-05-15T09:47:14.347Z,22.80
2018-05-15T09:49:42.757Z,22.80
2018-05-15T09:52:10.790Z,22.80
2018-05-15T09:54:38.452Z,22.60
2018-05-15T09:57:06.081Z,22.30
2018-05-15T09:59:33.730Z,22.30
2018-05-15T10:02:01.511Z,22.50
2018-05-15T10:04:29.144Z,22.60
2018-05-15T10:06:56.826Z,22.70
2018-05-15T10:09:24.789Z,22.90
2018-05-15T10:11:52.490Z,22.90
2018-05-15T10:14:20.522Z,22.90
2018-05-15T10:16:48.508Z,22.80
2018-05-15T10:19:16.162Z,22.80
2018-05-15T10:21:43.799Z,22.90
2018-05-15T10:24:11.423Z,22.90
2018-05-15T10:26:39.070Z,23.10
2018-05-15T10:29:06.706Z,23.20
2018-05-15T10:31:34.384Z,23.30
2018-05-15T10:34:02.209Z,23.60
2018-05-15T10:36:29.890Z,23.80
2018-05-15T10:38:57.547Z,23.90
2018-05-15T10:41:25.348Z,24.20
2018-05-15T10:43:53.164Z,24.20
2018-05-15T10:46:21.538Z,24.70
2018-05-15T10:48:50.973Z,24.90
2018-05-15T10:51:21.542Z,24.80
2018-05-15T10:53:49.234Z,24.90
2018-05-15T10:56:26.086Z,24.20
2018-05-15T10:58:53.753Z,24.20
2018-05-15T11:01:21.383Z,24.10
2018-05-15T11:03:49.053Z,24.20
2018-05-15T11:06:16.679Z,24.30
2018-05-15T11:08:44.468Z,24.40
2018-05-15T11:11:12.084Z,24.70
2018-05-15T11:13:39.823Z,24.90
2018-05-15T11:16:07.530Z,24.80
2018-05-15T11:18:42.426Z,24.70
2018-05-15T11:21:22.789Z,24.40
2018-05-15T11:24:02.275Z,24.40
2018-05-15T11:26:30.791Z,24.60
2018-05-15T11:28:58.558Z,24.60
2018-05-15T11:31:26.269Z,24.60
2018-05-15T11:33:53.967Z,24.40
2018-05-15T11:36:21.646Z,24.30
2018-05-15T11:38:49.335Z,24.30
2018-05-15T11:41:17.742Z,24.30
2018-05-15T11:43:45.395Z,24.30
2018-05-15T11:46:13.079Z,24.40
2018-05-15T11:48:41.599Z,24.30
2018-05-15T11:51:09.030Z,24.30
2018-05-15T11:53:36.113Z,24.30
2018-05-15T11:56:03.890Z,24.50
2018-05-15T11:58:31.508Z,24.60
2018-05-15T12:00:59.229Z,24.50
2018-05-15T12:03:27.633Z,24.50
2018-05-15T12:05:55.560Z,24.50
2018-05-15T12:08:23.463Z,24.40
2018-05-15T12:10:51.324Z,24.40
2018-05-15T12:13:19.121Z,24.10
2018-05-15T12:15:46.793Z,23.90
2018-05-15T12:18:14.433Z,23.80
2018-05-15T12:20:42.226Z,23.70
2018-05-15T12:23:09.996Z,23.50
2018-05-15T12:25:37.837Z,23.50
2018-05-15T12:28:05.627Z,23.50
2018-05-15T12:30:33.301Z,23.50
2018-05-15T12:33:01.068Z,23.60
2018-05-15T12:35:28.681Z,23.80
2018-05-15T12:37:56.458Z,24.00
2018-05-15T12:40:24.188Z,24.00
2018-05-15T12:42:51.786Z,23.90
2018-05-15T12:45:19.775Z,23.90
2018-05-15T12:47:47.629Z,23.80
2018-05-15T12:50:15.312Z,23.90
2018-05-15T12:52:44.048Z,23.90
2018-05-15T12:55:11.730Z,23.90
2018-05-15T12:57:39.498Z,23.80
2018-05-15T13:00:07.301Z,24.00
2018-05-15T13:02:35.060Z,24.00
2018-05-15T13:05:03.334Z,24.00
2018-05-15T13:07:31.292Z,23.90
2018-05-15T13:10:19.285Z,23.80
2018-05-15T13:12:48.150Z,23.90
2018-05-15T13:15:16.837Z,24.00
2018-05-15T13:17:44.528Z,24.00
2018-05-15T13:20:12.421Z,23.80
2018-05-15T13:22:41.285Z,23.70
2018-05-15T13:25:10.583Z,23.50
2018-05-15T13:27:39.592Z,23.50
2018-05-15T13:30:07.753Z,23.40
2018-05-15T13:32:35.427Z,23.30
2018-05-15T13:35:03.150Z,23.20
2018-05-15T13:37:30.827Z,23.10
2018-05-15T13:39:59.032Z,23.00
2018-05-15T13:42:26.772Z,22.90
2018-05-15T13:44:54.472Z,22.90
2018-05-15T13:47:22.398Z,22.90
2018-05-15T13:49:50.505Z,23.00
2018-05-15T13:52:19.114Z,23.10
2018-05-15T13:54:46.761Z,23.10
2018-05-15T13:57:14.397Z,23.20
2018-05-15T13:59:42.879Z,23.40
2018-05-15T14:02:10.457Z,23.40
2018-05-15T14:04:42.252Z,23.40
2018-05-15T14:07:09.888Z,23.40
2018-05-15T14:09:38.300Z,23.30
2018-05-15T14:12:06.313Z,23.30
2018-05-15T14:14:34.806Z,23.20
2018-05-15T14:17:02.777Z,23.10
2018-05-15T14:19:30.702Z,23.20
2018-05-15T14:21:58.394Z,23.30
2018-05-15T14:24:26.080Z,23.40
2018-05-15T14:26:53.941Z,23.40
2018-05-15T14:29:21.752Z,23.30
2018-05-15T14:31:57.814Z,23.20
2018-05-15T14:34:26.062Z,23.10
2018-05-15T14:36:53.776Z,23.10
2018-05-15T14:39:21.378Z,23.10
2018-05-15T14:42:00.718Z,23.20
2018-05-15T14:44:28.373Z,23.30
2018-05-15T14:46:56.057Z,23.20
2018-05-15T14:49:23.711Z,23.10
2018-05-15T14:51:52.570Z,23.00
2018-05-15T14:54:20.309Z,23.00
2018-05-15T14:56:48.035Z,23.00
2018-05-15T14:59:16.299Z,22.80
2018-05-15T15:01:43.933Z,22.70
2018-05-15T15:04:12.059Z,22.70
2018-05-15T15:06:39.641Z,22.70
2018-05-15T15:09:07.364Z,22.60
2018-05-15T15:11:35.091Z,22.50
2018-05-15T15:14:03.544Z,22.30
2018-05-15T15:16:31.312Z,22.30
2018-05-15T15:18:59.470Z,22.40
2018-05-15T15:21:27.881Z,22.50
2018-05-15T15:23:56.326Z,22.60
2018-05-15T15:26:24.064Z,22.50
2018-05-15T15:28:52.280Z,22.60
2018-05-15T15:31:20.885Z,22.70
2018-05-15T15:33:48.563Z,22.70
2018-05-15T15:36:16.171Z,22.60
2018-05-15T15:38:43.797Z,22.70
2018-05-15T15:41:12.198Z,22.70
2018-05-15T15:43:39.868Z,22.70
2018-05-15T15:46:07.595Z,22.60
2018-05-15T15:48:35.305Z,22.60
2018-05-15T15:51:02.935Z,22.70
2018-05-15T15:53:31.286Z,22.60
2018-05-15T15:55:59.040Z,22.50
2018-05-15T15:58:26.683Z,22.30
2018-05-15T16:00:54.268Z,22.30
2018-05-15T16:03:21.852Z,22.30
2018-05-15T16:05:50.340Z,22.50
2018-05-15T16:08:18.735Z,22.40
2018-05-15T16:10:46.338Z,22.40
2018-05-15T16:13:13.998Z,22.40
2018-05-15T16:15:41.692Z,22.20
2018-05-15T16:18:09.356Z,22.20
2018-05-15T16:20:36.979Z,22.10
2018-05-15T16:23:04.632Z,22.10
2018-05-15T16:25:32.249Z,22.10
2018-05-15T16:27:59.853Z,22.00
2018-05-15T16:30:28.259Z,21.90
2018-05-15T16:32:55.878Z,21.90
2018-05-15T16:35:23.559Z,21.90
2018-05-15T16:37:51.169Z,21.80
2018-05-15T16:40:18.778Z,21.60
2018-05-15T16:42:46.543Z,21.00
2018-05-15T16:45:14.264Z,20.40
2018-05-15T16:47:41.968Z,19.90
2018-05-15T16:50:09.637Z,19.20
2018-05-15T16:52:38.006Z,18.30
2018-05-15T16:55:05.630Z,18.30
2018-05-15T16:57:33.238Z,18.20
2018-05-15T17:00:00.907Z,17.90
2018-05-15T17:02:29.111Z,17.40
2018-05-15T17:04:57.939Z,16.90
2018-05-15T17:07:25.609Z,16.90
2018-05-15T17:09:53.186Z,17.10
2018-05-15T17:12:20.798Z,17.10
2018-05-15T17:14:48.418Z,17.30
2018-05-15T17:17:16.081Z,17.50
2018-05-15T17:19:43.749Z,17.60
2018-05-15T17:22:11.402Z,17.70
2018-05-15T17:24:39.085Z,17.70
2018-05-15T17:27:06.875Z,17.80
2018-05-15T17:29:34.543Z,17.80
2018-05-15T17:32:02.189Z,17.60
2018-05-15T17:34:29.868Z,17.60
2018-05-15T17:36:57.469Z,17.70
2018-05-15T17:39:25.134Z,17.70
2018-05-15T17:41:53.011Z,17.70
2018-05-15T17:44:20.621Z,17.70
2018-05-15T17:46:49.074Z,17.60
2018-05-15T17:49:16.743Z,17.60
2018-05-15T17:51:44.460Z,17.60
2018-05-15T17:54:12.056Z,17.60
2018-05-15T17:56:39.696Z,17.60
2018-05-15T17:59:07.315Z,17.60
2018-05-15T18:01:34.979Z,17.50
2018-05-15T18:04:02.589Z,17.40
2018-05-15T18:06:30.291Z,17.40
2018-05-15T18:08:57.909Z,17.30
2018-05-15T18:11:25.581Z,17.30
2018-05-15T18:13:53.172Z,17.40
2018-05-15T18:16:20.841Z,17.40
2018-05-15T18:18:48.506Z,17.40
2018-05-15T18:21:16.212Z,17.50
2018-05-15T18:23:43.795Z,17.60
2018-05-15T18:26:11.445Z,17.60
2018-05-15T18:28:39.107Z,17.70
2018-05-15T18:31:06.762Z,17.60
2018-05-15T18:33:35.305Z,17.70
2018-05-15T18:36:02.898Z,17.60
2018-05-15T18:38:30.536Z,17.50
2018-05-15T18:40:58.164Z,17.50
2018-05-15T18:43:25.831Z,17.50
2018-05-15T18:45:53.450Z,17.50
2018-05-15T18:48:21.051Z,17.40
2018-05-15T18:50:48.759Z,17.30
2018-05-15T18:53:16.343Z,17.30
2018-05-15T18:55:44.016Z,17.30
2018-05-15T18:58:11.668Z,17.20
2018-05-15T19:00:39.293Z,17.30
2018-05-15T19:03:07.744Z,17.20
2018-05-15T19:05:35.367Z,17.20
2018-05-15T19:08:03.111Z,17.10
2018-05-15T19:10:32.800Z,17.10
2018-05-15T19:13:01.192Z,17.00
2018-05-15T19:15:28.850Z,17.00
2018-05-15T19:17:56.501Z,17.00
2018-05-15T19:20:24.113Z,17.00
2018-05-15T19:22:51.781Z,17.00
2018-05-15T19:25:19.378Z,17.00
2018-05-15T19:27:47.029Z,17.00
2018-05-15T19:30:14.639Z,17.10
2018-05-15T19:32:42.300Z,17.00
2018-05-15T19:35:10.711Z,17.00
2018-05-15T19:37:38.359Z,17.00
2018-05-15T19:40:11.475Z,17.00
2018-05-15T19:42:39.110Z,17.00
2018-05-15T19:45:06.735Z,17.00
2018-05-15T19:47:34.376Z,17.00
2018-05-15T19:50:08.677Z,17.00
2018-05-15T19:52:36.296Z,16.90
2018-05-15T19:55:03.914Z,16.80
2018-05-15T19:57:31.560Z,16.80
2018-05-15T19:59:59.162Z,16.80
2018-05-15T20:02:28.688Z,16.90
2018-05-15T20:04:57.089Z,16.90
2018-05-15T20:07:25.450Z,16.90
2018-05-15T20:09:53.845Z,16.80
2018-05-15T20:12:21.637Z,16.80
2018-05-15T20:14:49.501Z,16.80
2018-05-15T20:17:18.178Z,16.80
2018-05-15T20:19:46.033Z,16.80
2018-05-15T20:22:14.049Z,16.70
2018-05-15T20:24:41.787Z,16.70
2018-05-15T20:27:09.410Z,16.80
2018-05-15T20:29:37.045Z,16.80
2018-05-15T20:32:04.681Z,16.70
2018-05-15T20:34:32.313Z,16.70
2018-05-15T20:37:00.747Z,16.70
2018-05-15T20:39:28.351Z,16.60
2018-05-15T20:41:55.982Z,16.70
2018-05-15T20:44:23.607Z,16.60
2018-05-15T20:46:51.278Z,16.60
2018-05-15T20:49:18.899Z,16.60
2018-05-15T20:51:46.545Z,16.60
2018-05-15T20:54:14.966Z,16.60
2018-05-15T20:56:42.570Z,16.60
2018-05-15T20:59:10.212Z,16.50
2018-05-15T21:01:37.867Z,16.50
2018-05-15T21:04:05.490Z,16.60
2018-05-15T21:06:35.787Z,16.50
2018-05-15T21:09:03.438Z,16.50
2018-05-15T21:11:31.082Z,16.40
2018-05-15T21:13:58.684Z,16.50
2018-05-15T21:16:26.332Z,16.50
2018-05-15T21:18:53.971Z,16.40
2018-05-15T21:21:21.668Z,16.40
2018-05-15T21:23:49.299Z,16.50
2018-05-15T21:26:16.903Z,16.40
2018-05-15T21:28:44.512Z,16.20
2018-05-15T21:31:12.142Z,16.10
2018-05-15T21:33:39.741Z,16.00
2018-05-15T21:36:07.403Z,16.00
2018-05-15T21:38:35.049Z,16.10
2018-05-15T21:41:02.671Z,16.10
2018-05-15T21:43:31.076Z,16.30
2018-05-15T21:45:58.696Z,16.30
2018-05-15T21:48:26.298Z,16.40
2018-05-15T21:50:53.965Z,16.30
2018-05-15T21:53:21.549Z,16.20
2018-05-15T21:55:49.137Z,16.10
2018-05-15T21:58:16.764Z,16.00
2018-05-15T22:00:44.370Z,15.80
2018-05-15T22:03:12.795Z,15.70
2018-05-15T22:05:40.390Z,15.70
2018-05-15T22:08:08.015Z,15.60
2018-05-15T22:10:35.632Z,15.70
2018-05-15T22:13:15.153Z,15.80
2018-05-15T22:15:54.588Z,15.90
2018-05-15T22:18:34.050Z,15.80
2018-05-15T22:21:13.586Z,15.90
2018-05-15T22:23:40.739Z,16.00
2018-05-15T22:26:08.395Z,16.00
2018-05-15T22:28:36.054Z,16.00
2018-05-15T22:31:03.635Z,16.00
2018-05-15T22:33:31.216Z,15.90
2018-05-15T22:35:58.857Z,16.00
2018-05-15T22:38:26.446Z,16.00
2018-05-15T22:40:54.851Z,16.00
2018-05-15T22:43:23.229Z,15.90
2018-05-15T22:45:50.813Z,15.90
2018-05-15T22:48:18.473Z,16.00
2018-05-15T22:50:46.072Z,16.00
2018-05-15T22:53:13.642Z,16.00
2018-05-15T22:55:42.045Z,15.90
2018-05-15T22:58:09.622Z,15.90
2018-05-15T23:00:37.251Z,15.80
2018-05-15T23:03:04.891Z,15.70
2018-05-15T23:05:33.244Z,15.60
2018-05-15T23:08:00.879Z,15.70
2018-05-15T23:10:28.464Z,15.70
2018-05-15T23:12:56.074Z,15.60
2018-05-15T23:15:24.458Z,15.60
2018-05-15T23:17:52.819Z,15.60
2018-05-15T23:20:20.443Z,15.60
2018-05-15T23:22:48.083Z,15.50
2018-05-15T23:25:15.666Z,15.30
2018-05-15T23:27:43.239Z,15.40
2018-05-15T23:30:10.869Z,15.50
2018-05-15T23:32:38.471Z,15.50
2018-05-15T23:35:06.099Z,15.60
2018-05-15T23:37:33.694Z,15.50
2018-05-15T23:40:01.319Z,15.60
2018-05-15T23:42:28.894Z,15.60
2018-05-15T23:44:56.540Z,15.70
2018-05-15T23:47:24.161Z,15.70
2018-05-15T23:49:52.523Z,15.70
2018-05-15T23:52:20.154Z,15.70
2018-05-15T23:54:47.738Z,15.70
2018-05-15T23:57:15.330Z,15.70
2018-05-15T23:59:43.721Z,15.80
